Time;durP1;ratioP1;P1;durP2;ratioP2;P2;SDS_P1;SDS_P2;PMS_P1;PMS_P2;Temp;Humidity;BMP_temperature;BMP_pressure;BME280_temperature;BME280_humidity;BME280_pressure;Samples;Min_cycle;Max_cycle;Signal;HPM_P1;HPM_P2
2024/01/01 00:00:42;;;;;;;85.57;37.28;;;;;;;;;;4987406;28;20054;-66
2024/01/01 00:03:09;;;;;;;61.20;29.48;;;;;;;;;;4967308;28;20042;-65
2024/01/01 00:05:37;;;;;;;47.78;20.63;;;;;;;;;;4985230;28;20472;-65
2024/01/01 00:08:06;;;;;;;35.25;16.17;;;;;;;;;;4986074;28;20519;-65
2024/01/01 00:10:33;;;;;;;32.20;14.27;;;;;;;;;;4988177;28;20050;-65
2024/01/01 00:13:00;;;;;;;28.25;10.70;;;;;;;;;;4969059;28;20623;-65
2024/01/01 00:15:27;;;;;;;24.73;8.70;;;;;;;;;;4987069;28;20046;-66
2024/01/01 00:17:55;;;;;;;26.48;7.88;;;;;;;;;;4984000;28;20054;-65
2024/01/01 00:20:22;;;;;;;20.77;7.85;;;;;;;;;;4987196;28;20508;-66
2024/01/01 00:22:49;;;;;;;16.02;6.30;;;;;;;;;;4983832;28;20057;-66
2024/01/01 00:25:18;;;;;;;16.15;5.05;;;;;;;;;;4987703;28;20074;-67
2024/01/01 00:27:45;;;;;;;8.70;4.00;;;;;;;;;;4986774;28;20042;-66
2024/01/01 00:30:13;;;;;;;12.20;4.30;;;;;;;;;;4988478;28;20054;-66
2024/01/01 00:32:40;;;;;;;12.95;4.95;;;;;;;;;;4988427;28;20049;-67
2024/01/01 00:35:08;;;;;;;11.32;4.90;;;;;;;;;;4991398;28;20116;-66
2024/01/01 00:37:36;;;;;;;12.23;5.63;;;;;;;;;;4990699;28;20129;-68
2024/01/01 00:40:03;;;;;;;17.52;5.28;;;;;;;;;;4989873;28;20556;-67
2024/01/01 00:42:32;;;;;;;16.58;7.00;;;;;;;;;;4973243;28;20481;-67
2024/01/01 00:44:59;;;;;;;25.85;8.15;;;;;;;;;;4989845;28;20049;-67
2024/01/01 00:47:26;;;;;;;20.13;9.57;;;;;;;;;;4990380;28;20469;-65
2024/01/01 00:49:54;;;;;;;22.13;10.07;;;;;;;;;;4990652;28;20042;-67
2024/01/01 00:52:21;;;;;;;26.70;14.10;;;;;;;;;;4990455;28;20050;-68
2024/01/01 00:54:48;;;;;;;30.58;13.55;;;;;;;;;;4989371;28;20058;-67
2024/01/01 00:57:15;;;;;;;35.65;15.32;;;;;;;;;;4988598;28;20051;-67
2024/01/01 00:59:44;;;;;;;32.38;17.20;;;;;;;;;;4995049;28;20042;-66
2024/01/01 01:02:11;;;;;;;29.02;15.50;;;;;;;;;;4987865;28;20046;-68
2024/01/01 01:04:42;;;;;;;28.10;12.25;;;;;;;;;;4989062;28;20046;-66
2024/01/01 01:07:09;;;;;;;19.20;8.10;;;;;;;;;;4994509;28;20050;-66
2024/01/01 01:09:36;;;;;;;14.38;6.57;;;;;;;;;;4989785;28;20054;-66
2024/01/01 01:12:04;;;;;;;10.95;4.60;;;;;;;;;;4990390;28;20072;-66
2024/01/01 01:14:31;;;;;;;13.05;4.57;;;;;;;;;;4989634;28;20054;-66
2024/01/01 01:16:59;;;;;;;17.00;5.90;;;;;;;;;;4994258;28;20050;-67
2024/01/01 01:19:27;;;;;;;16.63;6.45;;;;;;;;;;4989689;28;20526;-66
2024/01/01 01:21:54;;;;;;;17.48;7.70;;;;;;;;;;4989926;28;20155;-67
2024/01/01 01:24:21;;;;;;;17.23;7.63;;;;;;;;;;4991749;28;20058;-67
2024/01/01 01:26:48;;;;;;;24.95;10.30;;;;;;;;;;4990606;28;20049;-66
2024/01/01 01:29:17;;;;;;;38.78;18.50;;;;;;;;;;4988722;28;20054;-66
2024/01/01 01:31:46;;;;;;;37.20;17.42;;;;;;;;;;4987253;28;20054;-67
2024/01/01 01:34:14;;;;;;;43.83;18.85;;;;;;;;;;4973125;28;20513;-67
2024/01/01 01:36:42;;;;;;;61.85;24.90;;;;;;;;;;4990583;28;20054;-67
2024/01/01 01:39:09;;;;;;;73.65;33.97;;;;;;;;;;4987873;28;20054;-67
2024/01/01 01:41:37;;;;;;;78.80;37.80;;;;;;;;;;4972496;28;20085;-66
2024/01/01 01:44:04;;;;;;;69.53;34.22;;;;;;;;;;4986283;28;20505;-66
2024/01/01 01:46:32;;;;;;;85.45;38.78;;;;;;;;;;4987163;28;20050;-67
2024/01/01 01:48:59;;;;;;;102.70;43.80;;;;;;;;;;4988992;28;20053;-66
2024/01/01 01:51:28;;;;;;;120.25;55.97;;;;;;;;;;4990302;28;20297;-66
2024/01/01 01:53:56;;;;;;;116.82;57.45;;;;;;;;;;4985551;28;20046;-68
2024/01/01 01:56:23;;;;;;;104.13;50.08;;;;;;;;;;4989206;28;20050;-67
2024/01/01 01:58:51;;;;;;;106.10;49.00;;;;;;;;;;4984699;28;20042;-67
2024/01/01 02:01:18;;;;;;;96.22;45.05;;;;;;;;;;4975404;28;20051;-67
2024/01/01 02:03:45;;;;;;;75.57;39.60;;;;;;;;;;4986070;28;20054;-67
2024/01/01 02:06:13;;;;;;;76.82;39.50;;;;;;;;;;4990038;28;20536;-68
2024/01/01 02:08:41;;;;;;;99.43;45.78;;;;;;;;;;4979378;28;20454;-68
2024/01/01 02:11:08;;;;;;;86.35;41.95;;;;;;;;;;4984556;28;20058;-67
2024/01/01 02:13:36;;;;;;;88.10;43.42;;;;;;;;;;4982492;28;20058;-67
2024/01/01 02:16:03;;;;;;;91.10;41.92;;;;;;;;;;4975060;28;20055;-67
2024/01/01 02:18:30;;;;;;;83.45;40.70;;;;;;;;;;4974721;28;20082;-68
2024/01/01 02:20:58;;;;;;;84.90;37.00;;;;;;;;;;4973392;28;20088;-67
2024/01/01 02:23:26;;;;;;;82.95;38.08;;;;;;;;;;4978595;28;20050;-68
2024/01/01 02:25:53;;;;;;;77.80;37.20;;;;;;;;;;4973052;28;20050;-67
2024/01/01 02:28:21;;;;;;;82.40;35.75;;;;;;;;;;4987799;28;20453;-68
2024/01/01 02:30:48;;;;;;;74.38;34.35;;;;;;;;;;4977852;28;20077;-68
2024/01/01 02:33:15;;;;;;;62.05;31.30;;;;;;;;;;4989704;28;20054;-69
2024/01/01 02:35:42;;;;;;;73.63;33.00;;;;;;;;;;4972681;28;20047;-67
2024/01/01 02:38:10;;;;;;;70.28;29.90;;;;;;;;;;4985843;28;20161;-66
2024/01/01 02:40:39;;;;;;;69.43;32.03;;;;;;;;;;4967566;28;20050;-66
2024/01/01 02:43:06;;;;;;;66.15;27.42;;;;;;;;;;4987203;28;20053;-66
2024/01/01 02:45:33;;;;;;;62.63;27.25;;;;;;;;;;4986544;28;20043;-66
2024/01/01 02:48:01;;;;;;;90.65;28.55;;;;;;;;;;4983332;28;20047;-67
2024/01/01 02:50:29;;;;;;;61.22;27.73;;;;;;;;;;4989617;28;20050;-65
2024/01/01 02:52:56;;;;;;;67.88;27.98;;;;;;;;;;4986384;28;20082;-66
2024/01/01 02:55:23;;;;;;;57.75;25.83;;;;;;;;;;4986615;28;20105;-67
2024/01/01 02:57:52;;;;;;;53.80;24.02;;;;;;;;;;4987733;28;20046;-67
2024/01/01 03:00:20;;;;;;;57.35;23.40;;;;;;;;;;4989778;28;20061;-67
2024/01/01 03:02:47;;;;;;;59.15;23.02;;;;;;;;;;4981894;28;20054;-66
2024/01/01 03:05:14;;;;;;;54.60;23.50;;;;;;;;;;4988437;28;20050;-67
2024/01/01 03:07:41;;;;;;;53.20;21.98;;;;;;;;;;4985547;28;20069;-67
2024/01/01 03:10:09;;;;;;;49.45;22.38;;;;;;;;;;4983406;28;20577;-67
2024/01/01 03:12:36;;;;;;;52.50;20.52;;;;;;;;;;4988076;28;20043;-66
2024/01/01 03:15:05;;;;;;;47.95;19.75;;;;;;;;;;4987125;28;20054;-66
2024/01/01 03:17:32;;;;;;;45.90;18.75;;;;;;;;;;4989229;28;20568;-67
2024/01/01 03:20:00;;;;;;;46.47;17.85;;;;;;;;;;4986734;28;20058;-67
2024/01/01 03:22:27;;;;;;;41.60;16.67;;;;;;;;;;4982485;28;20508;-66
2024/01/01 03:24:54;;;;;;;38.55;15.43;;;;;;;;;;4987481;28;20046;-66
2024/01/01 03:27:21;;;;;;;48.40;17.45;;;;;;;;;;4989653;28;20071;-66
2024/01/01 03:29:49;;;;;;;36.33;15.80;;;;;;;;;;4987595;28;20524;-67
2024/01/01 03:32:17;;;;;;;31.75;14.57;;;;;;;;;;4989187;28;20058;-67
2024/01/01 03:34:45;;;;;;;32.15;15.43;;;;;;;;;;4987154;28;20042;-67
2024/01/01 03:37:12;;;;;;;35.65;15.88;;;;;;;;;;4981889;28;20059;-67
2024/01/01 03:39:39;;;;;;;41.53;16.08;;;;;;;;;;4988179;28;20050;-67
2024/01/01 03:42:06;;;;;;;44.67;15.98;;;;;;;;;;4984872;28;20062;-66
2024/01/01 03:44:33;;;;;;;41.75;14.95;;;;;;;;;;4985501;28;20101;-67
2024/01/01 03:47:01;;;;;;;36.80;14.30;;;;;;;;;;4990548;28;20058;-66
2024/01/01 03:49:29;;;;;;;38.15;13.43;;;;;;;;;;4984210;28;20046;-67
2024/01/01 03:51:56;;;;;;;40.75;13.35;;;;;;;;;;4978077;28;20042;-67
2024/01/01 03:54:24;;;;;;;38.22;11.98;;;;;;;;;;4984288;28;20395;-67
2024/01/01 03:56:51;;;;;;;37.45;12.73;;;;;;;;;;4984697;28;20061;-67
2024/01/01 03:59:18;;;;;;;38.90;12.02;;;;;;;;;;4981764;28;20410;-68
2024/01/01 04:01:45;;;;;;;39.35;12.18;;;;;;;;;;4976202;28;20051;-66
2024/01/01 04:04:13;;;;;;;35.60;11.43;;;;;;;;;;4985294;28;20050;-67
2024/01/01 04:06:41;;;;;;;31.80;11.15;;;;;;;;;;4991294;28;20051;-66
2024/01/01 04:09:08;;;;;;;23.55;9.30;;;;;;;;;;4982387;28;20047;-66
2024/01/01 04:11:36;;;;;;;39.78;11.13;;;;;;;;;;4990560;28;20145;-67
2024/01/01 04:14:03;;;;;;;31.13;11.50;;;;;;;;;;4970122;28;20410;-68
2024/01/01 04:16:30;;;;;;;34.58;11.07;;;;;;;;;;4992487;28;20128;-66
2024/01/01 04:18:58;;;;;;;27.02;7.53;;;;;;;;;;4989247;28;20050;-66
2024/01/01 04:21:25;;;;;;;23.60;9.00;;;;;;;;;;4989304;28;20132;-66
2024/01/01 04:23:57;;;;;;;24.35;7.28;;;;;;;;;;4991668;28;20075;-66
2024/01/01 04:26:25;;;;;;;28.75;7.72;;;;;;;;;;4992449;28;20090;-66
2024/01/01 04:28:52;;;;;;;19.92;7.18;;;;;;;;;;4990629;28;20057;-66
2024/01/01 04:31:19;;;;;;;24.85;8.25;;;;;;;;;;4989768;28;20132;-66
2024/01/01 04:33:46;;;;;;;29.08;7.15;;;;;;;;;;4989450;28;20043;-67
2024/01/01 04:36:14;;;;;;;21.38;6.30;;;;;;;;;;4987240;28;20054;-66
2024/01/01 04:38:42;;;;;;;21.08;5.72;;;;;;;;;;4991142;28;20421;-67
2024/01/01 04:41:10;;;;;;;20.83;5.30;;;;;;;;;;4991076;28;20077;-67
2024/01/01 04:43:38;;;;;;;23.27;5.90;;;;;;;;;;4988566;28;20141;-66
2024/01/01 04:46:06;;;;;;;18.40;4.90;;;;;;;;;;4987677;28;20042;-67
2024/01/01 04:48:34;;;;;;;14.07;4.20;;;;;;;;;;4991841;28;20086;-67
2024/01/01 04:51:01;;;;;;;15.98;4.20;;;;;;;;;;4991467;28;20078;-67
2024/01/01 04:53:28;;;;;;;13.25;3.15;;;;;;;;;;4990671;28;20050;-66
2024/01/01 04:55:56;;;;;;;17.27;3.45;;;;;;;;;;4991176;28;20057;-67
2024/01/01 04:58:24;;;;;;;14.23;2.63;;;;;;;;;;4973034;28;20058;-66
2024/01/01 05:00:51;;;;;;;13.10;2.53;;;;;;;;;;4988867;28;20050;-66
2024/01/01 05:03:19;;;;;;;10.75;1.98;;;;;;;;;;4990686;28;20050;-67
2024/01/01 05:05:46;;;;;;;14.20;2.95;;;;;;;;;;4989766;28;20068;-66
2024/01/01 05:08:13;;;;;;;13.43;2.75;;;;;;;;;;4987420;28;20406;-67
2024/01/01 05:10:41;;;;;;;10.88;2.15;;;;;;;;;;4976048;28;20069;-67
2024/01/01 05:13:08;;;;;;;11.20;2.65;;;;;;;;;;4990144;28;20050;-67
2024/01/01 05:15:38;;;;;;;11.40;1.85;;;;;;;;;;4987814;28;20482;-68
2024/01/01 05:18:05;;;;;;;9.13;1.70;;;;;;;;;;4987355;28;20137;-68
2024/01/01 05:20:33;;;;;;;10.15;1.75;;;;;;;;;;4989261;28;20482;-68
2024/01/01 05:23:00;;;;;;;13.77;1.67;;;;;;;;;;4985511;28;20136;-67
2024/01/01 05:25:28;;;;;;;9.80;1.60;;;;;;;;;;4991172;28;20054;-68
2024/01/01 05:27:55;;;;;;;14.15;1.48;;;;;;;;;;4986525;28;20046;-68
2024/01/01 05:30:23;;;;;;;10.88;1.60;;;;;;;;;;4991087;28;20076;-68
2024/01/01 05:32:51;;;;;;;13.45;1.75;;;;;;;;;;4989846;28;20058;-68
2024/01/01 05:35:19;;;;;;;10.95;1.20;;;;;;;;;;4991296;28;20047;-68
2024/01/01 05:37:46;;;;;;;12.45;1.58;;;;;;;;;;4987366;28;20074;-68
2024/01/01 05:40:13;;;;;;;12.25;1.80;;;;;;;;;;4986242;28;20057;-68
2024/01/01 05:42:40;;;;;;;10.60;1.80;;;;;;;;;;4988946;28;20074;-68
2024/01/01 05:45:08;;;;;;;14.40;2.20;;;;;;;;;;4990737;28;20397;-68
2024/01/01 05:47:35;;;;;;;19.55;3.13;;;;;;;;;;4988355;28;20138;-68
2024/01/01 05:50:04;;;;;;;20.63;2.97;;;;;;;;;;4987824;28;21045;-67
2024/01/01 05:52:31;;;;;;;24.75;4.32;;;;;;;;;;4989088;28;20068;-67
2024/01/01 05:54:59;;;;;;;23.33;4.30;;;;;;;;;;4986585;28;20389;-67
2024/01/01 05:57:26;;;;;;;28.75;4.32;;;;;;;;;;4983517;28;20053;-67
2024/01/01 05:59:53;;;;;;;25.88;3.80;;;;;;;;;;4989326;28;20046;-68
2024/01/01 06:02:20;;;;;;;29.58;3.70;;;;;;;;;;4985211;28;20050;-68
2024/01/01 06:04:48;;;;;;;28.08;3.83;;;;;;;;;;4987305;28;20051;-67
2024/01/01 06:07:16;;;;;;;15.93;3.92;;;;;;;;;;4988127;28;20050;-67
2024/01/01 06:09:43;;;;;;;23.90;2.92;;;;;;;;;;4984681;28;20055;-68
2024/01/01 06:12:11;;;;;;;27.48;3.33;;;;;;;;;;4990339;28;20166;-68
2024/01/01 06:14:38;;;;;;;28.75;3.28;;;;;;;;;;4987829;28;20062;-68
2024/01/01 06:17:05;;;;;;;30.55;4.22;;;;;;;;;;4988728;28;20410;-68
2024/01/01 06:19:32;;;;;;;22.33;3.22;;;;;;;;;;4988575;28;20065;-68
2024/01/01 06:21:59;;;;;;;21.52;2.78;;;;;;;;;;4985329;28;20047;-68
2024/01/01 06:24:28;;;;;;;13.80;1.80;;;;;;;;;;4987314;28;20050;-69
2024/01/01 06:26:55;;;;;;;10.43;1.15;;;;;;;;;;4989784;28;20046;-70
2024/01/01 06:29:26;;;;;;;8.05;0.80;;;;;;;;;;4993908;28;20053;-70
2024/01/01 06:31:54;;;;;;;17.10;0.80;;;;;;;;;;4991171;28;20129;-69
2024/01/01 06:34:21;;;;;;;2.58;0.85;;;;;;;;;;4989542;28;20055;-69
2024/01/01 06:36:48;;;;;;;8.30;0.50;;;;;;;;;;4988456;28;20046;-69
2024/01/01 06:39:15;;;;;;;4.05;0.57;;;;;;;;;;4985036;28;20051;-69
2024/01/01 06:41:44;;;;;;;2.33;0.40;;;;;;;;;;4988955;28;20462;-70
2024/01/01 06:44:11;;;;;;;13.88;0.80;;;;;;;;;;4988525;28;20050;-69
2024/01/01 06:46:39;;;;;;;4.97;0.85;;;;;;;;;;4970750;28;20888;-70
2024/01/01 06:49:07;;;;;;;5.03;0.30;;;;;;;;;;4964919;28;20138;-70
2024/01/01 06:51:34;;;;;;;3.05;0.22;;;;;;;;;;4989478;28;20042;-70
2024/01/01 06:54:01;;;;;;;7.90;0.20;;;;;;;;;;4986958;28;20050;-70
2024/01/01 06:56:28;;;;;;;2.78;0.30;;;;;;;;;;4989438;28;20069;-70
2024/01/01 06:58:57;;;;;;;8.27;0.50;;;;;;;;;;4986603;28;20046;-69
2024/01/01 07:01:24;;;;;;;5.00;0.43;;;;;;;;;;4987900;28;20053;-69
2024/01/01 07:03:51;;;;;;;7.45;0.45;;;;;;;;;;4988370;28;20530;-69
2024/01/01 07:06:19;;;;;;;4.53;0.40;;;;;;;;;;4984457;28;20050;-69
2024/01/01 07:08:46;;;;;;;3.00;0.17;;;;;;;;;;4977569;28;20047;-69
2024/01/01 07:11:13;;;;;;;5.68;0.28;;;;;;;;;;4989608;28;20069;-69
2024/01/01 07:13:40;;;;;;;5.13;0.50;;;;;;;;;;4988262;28;20046;-69
2024/01/01 07:16:09;;;;;;;5.28;0.40;;;;;;;;;;4985279;28;20086;-69
2024/01/01 07:18:37;;;;;;;8.70;0.60;;;;;;;;;;4983913;28;20137;-69
2024/01/01 07:21:06;;;;;;;11.85;0.80;;;;;;;;;;4986959;28;20090;-70
2024/01/01 07:23:33;;;;;;;7.53;0.90;;;;;;;;;;4987938;28;20046;-69
2024/01/01 07:26:01;;;;;;;6.78;0.80;;;;;;;;;;4983533;28;20050;-69
2024/01/01 07:28:28;;;;;;;4.72;0.60;;;;;;;;;;4989152;28;20050;-69
2024/01/01 07:30:56;;;;;;;11.07;1.20;;;;;;;;;;4985549;28;20042;-69
2024/01/01 07:33:24;;;;;;;13.45;1.15;;;;;;;;;;4988193;28;20054;-68
2024/01/01 07:35:52;;;;;;;4.00;0.63;;;;;;;;;;4983246;28;20061;-68
2024/01/01 07:38:19;;;;;;;12.55;1.77;;;;;;;;;;4986383;28;20516;-67
2024/01/01 07:40:46;;;;;;;7.43;0.98;;;;;;;;;;4985361;28;20054;-68
2024/01/01 07:43:13;;;;;;;7.03;0.88;;;;;;;;;;4987826;28;20055;-68
2024/01/01 07:45:41;;;;;;;18.10;1.48;;;;;;;;;;4987940;28;20069;-67
2024/01/01 07:48:09;;;;;;;17.95;1.10;;;;;;;;;;4985457;28;20054;-68
2024/01/01 07:50:38;;;;;;;22.33;1.98;;;;;;;;;;4968531;28;20046;-68
2024/01/01 07:53:06;;;;;;;10.27;1.33;;;;;;;;;;4984392;28;20046;-67
2024/01/01 07:55:33;;;;;;;23.23;2.10;;;;;;;;;;4983366;28;20065;-68
2024/01/01 07:58:00;;;;;;;15.93;1.67;;;;;;;;;;4985007;28;20056;-68
2024/01/01 08:00:27;;;;;;;20.02;2.00;;;;;;;;;;4987523;28;20054;-67
2024/01/01 08:02:55;;;;;;;14.55;1.80;;;;;;;;;;4983190;28;20050;-67
2024/01/01 08:05:22;;;;;;;18.77;2.00;;;;;;;;;;4987519;28;20533;-67
2024/01/01 08:07:51;;;;;;;20.45;2.35;;;;;;;;;;4986759;28;20045;-67
2024/01/01 08:10:18;;;;;;;15.95;2.28;;;;;;;;;;4983938;28;20055;-67
2024/01/01 08:12:45;;;;;;;27.52;3.70;;;;;;;;;;4988232;28;20060;-67
2024/01/01 08:15:13;;;;;;;16.77;2.00;;;;;;;;;;4987415;28;20054;-67
2024/01/01 08:17:40;;;;;;;20.08;2.33;;;;;;;;;;4982511;28;20058;-67
2024/01/01 08:20:08;;;;;;;12.27;2.00;;;;;;;;;;4986386;28;20060;-67
2024/01/01 08:22:35;;;;;;;14.48;2.10;;;;;;;;;;4988621;28;20050;-68
2024/01/01 08:25:03;;;;;;;15.27;2.28;;;;;;;;;;4983809;28;20414;-68
2024/01/01 08:27:31;;;;;;;10.95;1.38;;;;;;;;;;4988647;28;20057;-68
2024/01/01 08:29:58;;;;;;;9.60;1.20;;;;;;;;;;4988653;28;20057;-68
2024/01/01 08:32:25;;;;;;;11.35;1.48;;;;;;;;;;4982836;28;20043;-67
2024/01/01 08:34:52;;;;;;;8.70;1.30;;;;;;;;;;4969615;28;20058;-68
2024/01/01 08:37:20;;;;;;;15.13;2.22;;;;;;;;;;4992544;28;20054;-67
2024/01/01 08:39:47;;;;;;;12.43;1.05;;;;;;;;;;4972361;28;20449;-67
2024/01/01 08:42:16;;;;;;;11.25;1.55;;;;;;;;;;4988653;28;20050;-68
2024/01/01 08:44:43;;;;;;;10.55;1.52;;;;;;;;;;4989423;28;20061;-68
2024/01/01 08:47:10;;;;;;;10.18;1.33;;;;;;;;;;4988301;28;20050;-67
2024/01/01 08:49:37;;;;;;;10.27;1.15;;;;;;;;;;4987867;28;20047;-68
2024/01/01 08:52:05;;;;;;;12.35;1.27;;;;;;;;;;4991063;28;20394;-67
2024/01/01 08:54:32;;;;;;;10.25;1.30;;;;;;;;;;4993994;28;20486;-67
2024/01/01 08:56:59;;;;;;;9.57;1.58;;;;;;;;;;4990454;28;20130;-67
2024/01/01 08:59:28;;;;;;;18.85;1.98;;;;;;;;;;4990584;28;20510;-67
2024/01/01 09:01:55;;;;;;;16.38;1.60;;;;;;;;;;4972407;28;20050;-67
2024/01/01 09:04:22;;;;;;;13.48;1.80;;;;;;;;;;4991311;28;20454;-66
2024/01/01 09:06:50;;;;;;;13.05;1.90;;;;;;;;;;4988953;28;20059;-67
2024/01/01 09:09:17;;;;;;;19.25;2.13;;;;;;;;;;4989465;28;20097;-66
2024/01/01 09:11:47;;;;;;;17.60;1.88;;;;;;;;;;4984767;28;20050;-65
2024/01/01 09:14:14;;;;;;;27.20;2.38;;;;;;;;;;4983855;28;20509;-68
2024/01/01 09:16:43;;;;;;;12.43;1.92;;;;;;;;;;4972097;28;20050;-67
2024/01/01 09:19:10;;;;;;;18.80;2.80;;;;;;;;;;4984548;28;20065;-67
2024/01/01 09:21:38;;;;;;;20.83;1.98;;;;;;;;;;4988110;28;20463;-68
2024/01/01 09:24:08;;;;;;;16.85;2.15;;;;;;;;;;4987480;28;20057;-68
2024/01/01 09:26:35;;;;;;;14.25;1.42;;;;;;;;;;4986208;28;20043;-67
2024/01/01 09:29:04;;;;;;;10.00;1.70;;;;;;;;;;4986494;28;21214;-67
2024/01/01 09:31:31;;;;;;;11.57;1.85;;;;;;;;;;4990780;28;20089;-67
2024/01/01 09:34:03;;;;;;;15.05;1.65;;;;;;;;;;4987646;28;20108;-67
2024/01/01 09:36:30;;;;;;;17.90;2.17;;;;;;;;;;4988150;28;20375;-67
2024/01/01 09:38:58;;;;;;;17.48;2.05;;;;;;;;;;4989220;28;20055;-67
2024/01/01 09:41:25;;;;;;;22.95;2.00;;;;;;;;;;4987267;28;20450;-67
2024/01/01 09:43:53;;;;;;;21.00;2.80;;;;;;;;;;4987283;28;20056;-66
2024/01/01 09:46:21;;;;;;;20.05;2.00;;;;;;;;;;4990065;28;20409;-67
2024/01/01 09:48:48;;;;;;;22.10;2.10;;;;;;;;;;4985175;28;20489;-67
2024/01/01 09:51:17;;;;;;;24.48;2.13;;;;;;;;;;4990434;28;20053;-66
2024/01/01 09:53:46;;;;;;;21.88;2.20;;;;;;;;;;4989964;28;20050;-70
2024/01/01 09:56:13;;;;;;;24.95;2.75;;;;;;;;;;4989232;28;20087;-69
2024/01/01 09:58:41;;;;;;;18.00;1.90;;;;;;;;;;4989319;28;20052;-69
2024/01/01 10:01:12;;;;;;;19.70;2.42;;;;;;;;;;4982381;28;20050;-69
2024/01/01 10:03:40;;;;;;;22.73;2.00;;;;;;;;;;4986530;28;20069;-69
2024/01/01 10:06:10;;;;;;;21.25;2.08;;;;;;;;;;4990084;28;20401;-69
2024/01/01 10:08:39;;;;;;;14.65;1.85;;;;;;;;;;4983842;28;20053;-69
2024/01/01 10:11:16;;;;;;;16.48;1.75;;;;;;;;;;4993134;28;20055;-69
2024/01/01 10:13:43;;;;;;;23.38;1.90;;;;;;;;;;4985563;28;20054;-69
2024/01/01 10:16:10;;;;;;;17.02;2.15;;;;;;;;;;4987400;28;20066;-69
2024/01/01 10:18:38;;;;;;;13.02;1.63;;;;;;;;;;4989149;28;20059;-68
2024/01/01 10:21:11;;;;;;;21.98;2.38;;;;;;;;;;4988659;28;20073;-69
2024/01/01 10:23:39;;;;;;;18.20;2.20;;;;;;;;;;4987780;28;20081;-69
2024/01/01 10:26:07;;;;;;;16.52;1.80;;;;;;;;;;4984786;28;20047;-69
2024/01/01 10:28:35;;;;;;;14.20;1.55;;;;;;;;;;4990094;28;20058;-69
2024/01/01 10:31:02;;;;;;;18.85;1.75;;;;;;;;;;4985917;28;20054;-69
2024/01/01 10:33:31;;;;;;;14.35;2.25;;;;;;;;;;4989106;28;20047;-69
2024/01/01 10:36:00;;;;;;;9.68;1.50;;;;;;;;;;4989541;28;20042;-68
2024/01/01 10:38:29;;;;;;;14.63;1.73;;;;;;;;;;4984448;28;20397;-68
2024/01/01 10:40:58;;;;;;;14.55;1.67;;;;;;;;;;4991100;28;20441;-69
2024/01/01 10:43:27;;;;;;;34.58;3.08;;;;;;;;;;4988647;28;20050;-68
2024/01/01 10:46:02;;;;;;;16.88;1.98;;;;;;;;;;4983459;28;20046;-69
2024/01/01 10:48:29;;;;;;;16.40;1.90;;;;;;;;;;4988475;28;20540;-68
2024/01/01 10:51:07;;;;;;;15.77;2.13;;;;;;;;;;4987692;28;20508;-68
2024/01/01 10:53:44;;;;;;;16.08;1.73;;;;;;;;;;4984999;28;20085;-68
2024/01/01 10:56:15;;;;;;;8.70;1.35;;;;;;;;;;4971950;28;20077;-68
2024/01/01 10:58:47;;;;;;;15.45;2.30;;;;;;;;;;4987098;28;20057;-68
2024/01/01 11:01:16;;;;;;;14.40;1.75;;;;;;;;;;4987778;28;20706;-68
2024/01/01 11:03:46;;;;;;;17.85;1.83;;;;;;;;;;4987967;28;20460;-68
2024/01/01 11:06:24;;;;;;;11.25;1.83;;;;;;;;;;4988921;28;20482;-68
2024/01/01 11:08:51;;;;;;;17.70;1.55;;;;;;;;;;4984399;28;20062;-68
2024/01/01 11:11:24;;;;;;;21.90;1.95;;;;;;;;;;4990717;28;20055;-68
2024/01/01 11:13:55;;;;;;;9.25;1.20;;;;;;;;;;4988806;28;20469;-68
2024/01/01 11:16:23;;;;;;;18.88;2.60;;;;;;;;;;4986573;28;20654;-69
2024/01/01 11:18:51;;;;;;;17.63;1.60;;;;;;;;;;4988511;28;20062;-68
2024/01/01 11:21:28;;;;;;;21.15;1.85;;;;;;;;;;4986562;28;20478;-68
2024/01/01 11:23:56;;;;;;;15.70;2.22;;;;;;;;;;4988815;28;20169;-68
2024/01/01 11:26:30;;;;;;;14.75;1.38;;;;;;;;;;4989616;28;20559;-68
2024/01/01 11:28:58;;;;;;;11.25;1.42;;;;;;;;;;4981802;28;20061;-68
2024/01/01 11:31:26;;;;;;;13.13;2.13;;;;;;;;;;4986257;28;20057;-68
2024/01/01 11:34:00;;;;;;;19.42;2.58;;;;;;;;;;4987306;28;20046;-68
2024/01/01 11:36:28;;;;;;;16.42;1.85;;;;;;;;;;4985199;28;20482;-68
2024/01/01 11:38:55;;;;;;;13.98;1.42;;;;;;;;;;4982645;28;20046;-68
2024/01/01 11:41:23;;;;;;;20.33;1.92;;;;;;;;;;4975762;28;20058;-69
2024/01/01 11:43:51;;;;;;;13.43;1.80;;;;;;;;;;4979039;28;20050;-69
2024/01/01 11:46:29;;;;;;;15.57;2.33;;;;;;;;;;4988796;28;20474;-69
2024/01/01 11:49:00;;;;;;;17.92;2.38;;;;;;;;;;4985549;28;20046;-68
2024/01/01 11:51:28;;;;;;;25.42;3.55;;;;;;;;;;4989067;28;20104;-69
2024/01/01 11:54:05;;;;;;;15.38;1.80;;;;;;;;;;4987086;28;20050;-69
2024/01/01 11:56:32;;;;;;;17.77;2.15;;;;;;;;;;4988292;28;20047;-69
2024/01/01 11:59:02;;;;;;;10.68;1.70;;;;;;;;;;4988067;28;20050;-69
2024/01/01 12:01:29;;;;;;;12.43;2.17;;;;;;;;;;4980070;28;20046;-69
2024/01/01 12:03:57;;;;;;;15.45;2.53;;;;;;;;;;4988954;28;20066;-68
2024/01/01 12:06:24;;;;;;;18.27;2.50;;;;;;;;;;4988278;28;20064;-69
2024/01/01 12:09:02;;;;;;;13.05;1.77;;;;;;;;;;4985106;28;20110;-69
2024/01/01 12:11:30;;;;;;;15.80;1.77;;;;;;;;;;4988121;28;20509;-69
2024/01/01 12:13:57;;;;;;;13.60;1.30;;;;;;;;;;4972583;28;20053;-68
2024/01/01 12:16:26;;;;;;;14.57;2.10;;;;;;;;;;4982530;28;20054;-69
2024/01/01 12:18:57;;;;;;;16.33;1.88;;;;;;;;;;4989202;28;20051;-68
2024/01/01 12:21:24;;;;;;;18.25;2.10;;;;;;;;;;4989852;28;20042;-69
2024/01/01 12:24:03;;;;;;;20.77;2.25;;;;;;;;;;4987402;28;20046;-69
2024/01/01 12:26:31;;;;;;;12.35;1.80;;;;;;;;;;4986067;28;20133;-69
2024/01/01 12:29:14;;;;;;;16.02;2.15;;;;;;;;;;4988301;28;20050;-68
2024/01/01 12:31:43;;;;;;;14.95;1.85;;;;;;;;;;4993854;28;20055;-68
2024/01/01 12:34:14;;;;;;;14.82;1.75;;;;;;;;;;4992490;28;20061;-68
2024/01/01 12:36:43;;;;;;;13.60;1.63;;;;;;;;;;4992056;28;20046;-69
2024/01/01 12:39:10;;;;;;;16.55;2.05;;;;;;;;;;4989566;28;20054;-69
2024/01/01 12:41:37;;;;;;;16.90;2.60;;;;;;;;;;4995356;28;20046;-68
2024/01/01 12:44:05;;;;;;;14.02;1.55;;;;;;;;;;4993687;28;20137;-69
2024/01/01 12:46:32;;;;;;;11.10;1.52;;;;;;;;;;4990471;28;20485;-69
2024/01/01 12:49:01;;;;;;;10.68;1.40;;;;;;;;;;4994826;28;20053;-68
2024/01/01 12:51:29;;;;;;;17.30;1.60;;;;;;;;;;4968926;28;20395;-69
2024/01/01 12:53:57;;;;;;;9.43;1.52;;;;;;;;;;4990328;28;20050;-68
2024/01/01 12:56:24;;;;;;;14.35;1.60;;;;;;;;;;4987559;28;20054;-68
2024/01/01 12:58:52;;;;;;;17.20;2.63;;;;;;;;;;4993385;28;20061;-68
2024/01/01 13:01:19;;;;;;;15.10;1.85;;;;;;;;;;4987940;28;20064;-68
2024/01/01 13:03:47;;;;;;;19.33;1.90;;;;;;;;;;4989539;28;20050;-69
2024/01/01 13:06:19;;;;;;;15.90;1.80;;;;;;;;;;4972565;28;20055;-68
2024/01/01 13:08:47;;;;;;;17.42;1.90;;;;;;;;;;4965251;28;20056;-68
2024/01/01 13:11:14;;;;;;;16.20;2.08;;;;;;;;;;4992704;28;20081;-68
2024/01/01 13:13:42;;;;;;;12.73;1.50;;;;;;;;;;4986054;28;20508;-68
2024/01/01 13:16:09;;;;;;;13.85;2.10;;;;;;;;;;4992765;28;20060;-68
2024/01/01 13:18:37;;;;;;;16.42;1.73;;;;;;;;;;4992962;28;20073;-68
2024/01/01 13:21:04;;;;;;;20.25;2.13;;;;;;;;;;4982656;28;20062;-68
2024/01/01 13:23:33;;;;;;;12.13;1.75;;;;;;;;;;4989240;28;20043;-68
2024/01/01 13:26:02;;;;;;;17.70;2.55;;;;;;;;;;4985055;28;20061;-68
2024/01/01 13:28:30;;;;;;;10.02;1.75;;;;;;;;;;4992216;28;20062;-68
2024/01/01 13:30:58;;;;;;;14.55;2.28;;;;;;;;;;4989693;28;20182;-68
2024/01/01 13:33:25;;;;;;;13.25;2.05;;;;;;;;;;4987332;28;20081;-69
2024/01/01 13:35:52;;;;;;;18.42;1.75;;;;;;;;;;4989500;28;20520;-69
2024/01/01 13:38:20;;;;;;;17.85;2.47;;;;;;;;;;4987068;28;20057;-69
2024/01/01 13:40:49;;;;;;;20.20;2.63;;;;;;;;;;4988113;28;20109;-69
2024/01/01 13:43:18;;;;;;;17.70;1.25;;;;;;;;;;4993874;28;20157;-68
2024/01/01 13:45:46;;;;;;;16.98;1.58;;;;;;;;;;4991468;28;20038;-68
2024/01/01 13:48:13;;;;;;;14.50;1.60;;;;;;;;;;4991070;28;20058;-69
2024/01/01 13:50:41;;;;;;;15.88;1.40;;;;;;;;;;4973165;28;20510;-69
2024/01/01 13:53:09;;;;;;;12.35;1.25;;;;;;;;;;4992611;28;20058;-69
2024/01/01 13:55:37;;;;;;;14.25;2.20;;;;;;;;;;4988644;28;20129;-68
2024/01/01 13:58:06;;;;;;;10.45;1.55;;;;;;;;;;4989675;28;20046;-68
2024/01/01 14:00:36;;;;;;;14.60;1.92;;;;;;;;;;4990222;28;20054;-69
2024/01/01 14:03:03;;;;;;;24.13;2.72;;;;;;;;;;4988323;28;20053;-68
2024/01/01 14:05:30;;;;;;;20.10;3.20;;;;;;;;;;4992859;28;20046;-69
2024/01/01 14:07:57;;;;;;;12.60;1.40;;;;;;;;;;4990468;28;20073;-69
2024/01/01 14:10:24;;;;;;;9.32;1.42;;;;;;;;;;4996955;28;20097;-68
2024/01/01 14:12:52;;;;;;;15.93;1.75;;;;;;;;;;4974589;28;20576;-67
2024/01/01 14:15:23;;;;;;;13.45;1.65;;;;;;;;;;4994184;28;20081;-68
2024/01/01 14:17:50;;;;;;;13.00;1.50;;;;;;;;;;4988499;28;20049;-68
2024/01/01 14:20:18;;;;;;;9.80;1.55;;;;;;;;;;4987227;28;20089;-68
2024/01/01 14:22:45;;;;;;;16.63;1.80;;;;;;;;;;4986920;28;20046;-69
2024/01/01 14:25:13;;;;;;;19.10;1.65;;;;;;;;;;4987240;28;20054;-68
2024/01/01 14:27:41;;;;;;;17.83;1.60;;;;;;;;;;4986600;28;20469;-69
2024/01/01 14:30:09;;;;;;;14.80;1.85;;;;;;;;;;4987046;28;20053;-67
2024/01/01 14:32:38;;;;;;;17.13;1.80;;;;;;;;;;4988677;28;20073;-67